sensor_id;sensor_type;location;lat;lon;timestamp;P1;durP1;ratioP1;P2;durP2;ratioP2
14736;SDS011;7459;53.590;10.062;2024-01-16T00:02:02;7.47;;;2.38;;
14736;SDS011;7459;53.590;10.062;2024-01-16T00:04:28;4.53;;;1.90;;
14736;SDS011;7459;53.590;10.062;2024-01-16T00:06:55;5.97;;;2.10;;
14736;SDS011;7459;53.590;10.062;2024-01-16T00:09:21;7.17;;;2.43;;
14736;SDS011;7459;53.590;10.062;2024-01-16T00:11:48;5.68;;;2.28;;
14736;SDS011;7459;53.590;10.062;2024-01-16T00:14:14;4.57;;;2.50;;
14736;SDS011;7459;53.590;10.062;2024-01-16T00:16:45;4.50;;;2.50;;
14736;SDS011;7459;53.590;10.062;2024-01-16T00:19:12;4.60;;;2.03;;
14736;SDS011;7459;53.590;10.062;2024-01-16T00:21:42;6.27;;;2.40;;
14736;SDS011;7459;53.590;10.062;2024-01-16T00:24:12;4.78;;;2.20;;
14736;SDS011;7459;53.590;10.062;2024-01-16T00:26:38;4.25;;;2.28;;
14736;SDS011;7459;53.590;10.062;2024-01-16T00:29:04;5.10;;;2.60;;
14736;SDS011;7459;53.590;10.062;2024-01-16T00:31:30;6.25;;;3.08;;
14736;SDS011;7459;53.590;10.062;2024-01-16T00:33:56;7.03;;;2.50;;
14736;SDS011;7459;53.590;10.062;2024-01-16T00:36:22;5.78;;;3.15;;
14736;SDS011;7459;53.590;10.062;2024-01-16T00:38:48;6.88;;;2.95;;
14736;SDS011;7459;53.590;10.062;2024-01-16T00:41:13;5.65;;;2.70;;
14736;SDS011;7459;53.590;10.062;2024-01-16T00:43:40;4.68;;;2.40;;
14736;SDS011;7459;53.590;10.062;2024-01-16T00:46:07;6.13;;;2.60;;
14736;SDS011;7459;53.590;10.062;2024-01-16T00:48:33;6.83;;;2.27;;
14736;SDS011;7459;53.590;10.062;2024-01-16T00:50:58;5.13;;;2.00;;
14736;SDS011;7459;53.590;10.062;2024-01-16T00:53:25;5.23;;;2.33;;
14736;SDS011;7459;53.590;10.062;2024-01-16T00:55:52;4.80;;;2.50;;
14736;SDS011;7459;53.590;10.062;2024-01-16T00:58:19;5.25;;;2.45;;
14736;SDS011;7459;53.590;10.062;2024-01-16T01:00:46;5.67;;;2.20;;
14736;SDS011;7459;53.590;10.062;2024-01-16T01:03:12;7.18;;;2.28;;
14736;SDS011;7459;53.590;10.062;2024-01-16T01:05:38;6.37;;;2.30;;
14736;SDS011;7459;53.590;10.062;2024-01-16T01:08:03;4.70;;;2.42;;
14736;SDS011;7459;53.590;10.062;2024-01-16T01:10:29;4.68;;;2.30;;
14736;SDS011;7459;53.590;10.062;2024-01-16T01:12:55;4.73;;;2.27;;
14736;SDS011;7459;53.590;10.062;2024-01-16T01:15:21;5.40;;;2.47;;
14736;SDS011;7459;53.590;10.062;2024-01-16T01:17:50;5.97;;;2.37;;
14736;SDS011;7459;53.590;10.062;2024-01-16T01:20:17;4.68;;;2.22;;
14736;SDS011;7459;53.590;10.062;2024-01-16T01:22:44;8.27;;;2.55;;
14736;SDS011;7459;53.590;10.062;2024-01-16T01:25:13;5.00;;;2.50;;
14736;SDS011;7459;53.590;10.062;2024-01-16T01:27:39;5.05;;;2.50;;
14736;SDS011;7459;53.590;10.062;2024-01-16T01:30:08;5.50;;;2.20;;
14736;SDS011;7459;53.590;10.062;2024-01-16T01:32:35;7.93;;;2.58;;
14736;SDS011;7459;53.590;10.062;2024-01-16T01:35:01;8.35;;;2.88;;
14736;SDS011;7459;53.590;10.062;2024-01-16T01:37:28;5.43;;;2.87;;
14736;SDS011;7459;53.590;10.062;2024-01-16T01:39:53;6.00;;;2.55;;
14736;SDS011;7459;53.590;10.062;2024-01-16T01:42:19;6.63;;;2.80;;
14736;SDS011;7459;53.590;10.062;2024-01-16T01:44:45;5.50;;;2.60;;
14736;SDS011;7459;53.590;10.062;2024-01-16T01:47:11;6.97;;;3.05;;
14736;SDS011;7459;53.590;10.062;2024-01-16T01:49:36;5.60;;;2.38;;
14736;SDS011;7459;53.590;10.062;2024-01-16T01:52:03;7.93;;;3.30;;
14736;SDS011;7459;53.590;10.062;2024-01-16T01:54:30;5.32;;;2.70;;
14736;SDS011;7459;53.590;10.062;2024-01-16T01:57:01;7.82;;;3.05;;
14736;SDS011;7459;53.590;10.062;2024-01-16T01:59:28;5.80;;;2.37;;
14736;SDS011;7459;53.590;10.062;2024-01-16T02:01:56;6.72;;;2.83;;
14736;SDS011;7459;53.590;10.062;2024-01-16T02:04:22;5.30;;;2.53;;
14736;SDS011;7459;53.590;10.062;2024-01-16T02:06:49;5.80;;;2.65;;
14736;SDS011;7459;53.590;10.062;2024-01-16T02:09:15;5.37;;;2.43;;
14736;SDS011;7459;53.590;10.062;2024-01-16T02:11:41;8.63;;;3.00;;
14736;SDS011;7459;53.590;10.062;2024-01-16T02:14:07;5.90;;;2.60;;
14736;SDS011;7459;53.590;10.062;2024-01-16T02:16:37;5.95;;;2.95;;
14736;SDS011;7459;53.590;10.062;2024-01-16T02:19:05;7.43;;;2.72;;
14736;SDS011;7459;53.590;10.062;2024-01-16T02:21:37;8.27;;;3.25;;
14736;SDS011;7459;53.590;10.062;2024-01-16T02:24:15;6.13;;;2.85;;
14736;SDS011;7459;53.590;10.062;2024-01-16T02:26:42;6.67;;;3.10;;
14736;SDS011;7459;53.590;10.062;2024-01-16T02:29:08;6.63;;;3.58;;
14736;SDS011;7459;53.590;10.062;2024-01-16T02:31:34;6.68;;;2.88;;
14736;SDS011;7459;53.590;10.062;2024-01-16T02:34:00;7.45;;;3.03;;
14736;SDS011;7459;53.590;10.062;2024-01-16T02:36:28;7.53;;;3.50;;
14736;SDS011;7459;53.590;10.062;2024-01-16T02:38:56;5.78;;;2.80;;
14736;SDS011;7459;53.590;10.062;2024-01-16T02:41:22;5.53;;;3.00;;
14736;SDS011;7459;53.590;10.062;2024-01-16T02:43:48;7.93;;;3.30;;
14736;SDS011;7459;53.590;10.062;2024-01-16T02:46:14;7.88;;;3.83;;
14736;SDS011;7459;53.590;10.062;2024-01-16T02:48:40;6.97;;;3.23;;
14736;SDS011;7459;53.590;10.062;2024-01-16T02:51:07;7.50;;;3.70;;
14736;SDS011;7459;53.590;10.062;2024-01-16T02:53:33;7.18;;;3.40;;
14736;SDS011;7459;53.590;10.062;2024-01-16T02:55:59;8.00;;;3.58;;
14736;SDS011;7459;53.590;10.062;2024-01-16T02:58:28;8.03;;;3.80;;
14736;SDS011;7459;53.590;10.062;2024-01-16T03:03:57;9.75;;;3.63;;
14736;SDS011;7459;53.590;10.062;2024-01-16T03:06:23;9.67;;;4.73;;
14736;SDS011;7459;53.590;10.062;2024-01-16T03:08:49;9.85;;;4.82;;
14736;SDS011;7459;53.590;10.062;2024-01-16T03:11:16;10.20;;;4.53;;
14736;SDS011;7459;53.590;10.062;2024-01-16T03:13:42;11.33;;;4.70;;
14736;SDS011;7459;53.590;10.062;2024-01-16T03:16:08;10.20;;;4.47;;
14736;SDS011;7459;53.590;10.062;2024-01-16T03:18:37;13.43;;;4.78;;
14736;SDS011;7459;53.590;10.062;2024-01-16T03:21:06;10.95;;;5.03;;
14736;SDS011;7459;53.590;10.062;2024-01-16T03:23:32;13.05;;;5.50;;
14736;SDS011;7459;53.590;10.062;2024-01-16T03:25:58;12.33;;;5.57;;
14736;SDS011;7459;53.590;10.062;2024-01-16T03:28:24;10.95;;;4.93;;
14736;SDS011;7459;53.590;10.062;2024-01-16T03:30:50;10.60;;;5.63;;
14736;SDS011;7459;53.590;10.062;2024-01-16T03:33:15;11.23;;;4.70;;
14736;SDS011;7459;53.590;10.062;2024-01-16T03:35:41;12.13;;;5.03;;
14736;SDS011;7459;53.590;10.062;2024-01-16T03:38:07;8.93;;;4.60;;
14736;SDS011;7459;53.590;10.062;2024-01-16T03:40:32;10.53;;;4.73;;
14736;SDS011;7459;53.590;10.062;2024-01-16T03:43:02;10.30;;;4.35;;
14736;SDS011;7459;53.590;10.062;2024-01-16T03:45:30;7.65;;;4.15;;
14736;SDS011;7459;53.590;10.062;2024-01-16T03:47:56;10.93;;;4.97;;
14736;SDS011;7459;53.590;10.062;2024-01-16T03:50:22;10.23;;;4.47;;
14736;SDS011;7459;53.590;10.062;2024-01-16T03:52:48;9.25;;;5.10;;
14736;SDS011;7459;53.590;10.062;2024-01-16T03:55:13;10.17;;;4.30;;
14736;SDS011;7459;53.590;10.062;2024-01-16T03:57:39;10.73;;;4.60;;
14736;SDS011;7459;53.590;10.062;2024-01-16T04:00:05;11.57;;;5.20;;
14736;SDS011;7459;53.590;10.062;2024-01-16T04:02:31;10.48;;;4.80;;
14736;SDS011;7459;53.590;10.062;2024-01-16T04:04:57;10.97;;;5.60;;
14736;SDS011;7459;53.590;10.062;2024-01-16T04:07:23;9.88;;;4.35;;
14736;SDS011;7459;53.590;10.062;2024-01-16T04:09:51;9.80;;;4.70;;
14736;SDS011;7459;53.590;10.062;2024-01-16T04:12:17;9.90;;;4.90;;
14736;SDS011;7459;53.590;10.062;2024-01-16T04:14:42;9.63;;;4.97;;
14736;SDS011;7459;53.590;10.062;2024-01-16T04:17:08;9.25;;;4.38;;
14736;SDS011;7459;53.590;10.062;2024-01-16T04:19:34;10.50;;;4.90;;
14736;SDS011;7459;53.590;10.062;2024-01-16T04:22:00;8.77;;;4.32;;
14736;SDS011;7459;53.590;10.062;2024-01-16T04:24:26;10.15;;;4.88;;
14736;SDS011;7459;53.590;10.062;2024-01-16T04:26:52;9.93;;;4.63;;
14736;SDS011;7459;53.590;10.062;2024-01-16T04:29:18;11.55;;;4.95;;
14736;SDS011;7459;53.590;10.062;2024-01-16T04:31:44;9.40;;;4.57;;
14736;SDS011;7459;53.590;10.062;2024-01-16T04:34:09;13.27;;;5.15;;
14736;SDS011;7459;53.590;10.062;2024-01-16T04:36:35;9.43;;;4.90;;
14736;SDS011;7459;53.590;10.062;2024-01-16T04:39:01;9.73;;;4.35;;
14736;SDS011;7459;53.590;10.062;2024-01-16T04:41:28;10.30;;;4.43;;
14736;SDS011;7459;53.590;10.062;2024-01-16T04:43:54;11.15;;;4.03;;
14736;SDS011;7459;53.590;10.062;2024-01-16T04:46:20;9.32;;;4.03;;
14736;SDS011;7459;53.590;10.062;2024-01-16T04:48:46;8.93;;;3.95;;
14736;SDS011;7459;53.590;10.062;2024-01-16T04:51:12;8.70;;;3.53;;
14736;SDS011;7459;53.590;10.062;2024-01-16T04:53:37;10.70;;;4.47;;
14736;SDS011;7459;53.590;10.062;2024-01-16T04:56:03;9.33;;;3.83;;
14736;SDS011;7459;53.590;10.062;2024-01-16T04:58:29;7.78;;;3.85;;
14736;SDS011;7459;53.590;10.062;2024-01-16T05:00:55;7.33;;;3.70;;
14736;SDS011;7459;53.590;10.062;2024-01-16T05:03:21;9.45;;;4.00;;
14736;SDS011;7459;53.590;10.062;2024-01-16T05:05:46;8.80;;;3.37;;
14736;SDS011;7459;53.590;10.062;2024-01-16T05:08:12;7.13;;;3.40;;
14736;SDS011;7459;53.590;10.062;2024-01-16T05:10:38;7.63;;;3.17;;
14736;SDS011;7459;53.590;10.062;2024-01-16T05:13:03;7.93;;;3.63;;
14736;SDS011;7459;53.590;10.062;2024-01-16T05:15:29;8.52;;;3.50;;
14736;SDS011;7459;53.590;10.062;2024-01-16T05:17:55;8.13;;;3.23;;
14736;SDS011;7459;53.590;10.062;2024-01-16T05:20:20;9.93;;;3.70;;
14736;SDS011;7459;53.590;10.062;2024-01-16T05:22:46;9.77;;;3.60;;
14736;SDS011;7459;53.590;10.062;2024-01-16T05:25:12;6.88;;;3.10;;
14736;SDS011;7459;53.590;10.062;2024-01-16T05:27:38;6.90;;;2.80;;
14736;SDS011;7459;53.590;10.062;2024-01-16T05:30:04;9.27;;;3.10;;
14736;SDS011;7459;53.590;10.062;2024-01-16T05:32:30;6.15;;;2.40;;
14736;SDS011;7459;53.590;10.062;2024-01-16T05:34:56;5.60;;;2.17;;
14736;SDS011;7459;53.590;10.062;2024-01-16T05:37:22;6.80;;;2.25;;
14736;SDS011;7459;53.590;10.062;2024-01-16T05:39:48;8.23;;;2.50;;
14736;SDS011;7459;53.590;10.062;2024-01-16T05:42:14;5.97;;;2.08;;
14736;SDS011;7459;53.590;10.062;2024-01-16T05:44:40;6.07;;;2.15;;
14736;SDS011;7459;53.590;10.062;2024-01-16T05:47:05;3.80;;;1.63;;
14736;SDS011;7459;53.590;10.062;2024-01-16T05:49:31;6.10;;;2.10;;
14736;SDS011;7459;53.590;10.062;2024-01-16T05:51:57;5.13;;;1.60;;
14736;SDS011;7459;53.590;10.062;2024-01-16T05:54:23;4.93;;;1.85;;
14736;SDS011;7459;53.590;10.062;2024-01-16T05:56:48;5.60;;;2.00;;
14736;SDS011;7459;53.590;10.062;2024-01-16T05:59:14;8.00;;;1.90;;
14736;SDS011;7459;53.590;10.062;2024-01-16T06:01:41;6.75;;;2.03;;
14736;SDS011;7459;53.590;10.062;2024-01-16T06:04:06;4.10;;;1.40;;
14736;SDS011;7459;53.590;10.062;2024-01-16T06:06:32;3.25;;;1.23;;
14736;SDS011;7459;53.590;10.062;2024-01-16T06:08:58;4.27;;;1.60;;
14736;SDS011;7459;53.590;10.062;2024-01-16T06:11:29;4.88;;;1.65;;
14736;SDS011;7459;53.590;10.062;2024-01-16T06:13:59;4.00;;;1.25;;
14736;SDS011;7459;53.590;10.062;2024-01-16T06:16:25;5.10;;;1.08;;
14736;SDS011;7459;53.590;10.062;2024-01-16T06:18:51;3.13;;;0.80;;
14736;SDS011;7459;53.590;10.062;2024-01-16T06:21:17;5.72;;;1.40;;
14736;SDS011;7459;53.590;10.062;2024-01-16T06:23:43;3.77;;;1.27;;
14736;SDS011;7459;53.590;10.062;2024-01-16T06:26:09;5.50;;;1.30;;
14736;SDS011;7459;53.590;10.062;2024-01-16T06:28:35;3.78;;;1.50;;
14736;SDS011;7459;53.590;10.062;2024-01-16T06:31:01;6.45;;;1.40;;
14736;SDS011;7459;53.590;10.062;2024-01-16T06:33:26;4.23;;;1.33;;
14736;SDS011;7459;53.590;10.062;2024-01-16T06:35:54;3.47;;;1.58;;
14736;SDS011;7459;53.590;10.062;2024-01-16T06:38:20;4.10;;;1.20;;
14736;SDS011;7459;53.590;10.062;2024-01-16T06:40:46;8.43;;;1.45;;
14736;SDS011;7459;53.590;10.062;2024-01-16T06:43:12;5.37;;;2.23;;
14736;SDS011;7459;53.590;10.062;2024-01-16T06:45:40;6.05;;;1.30;;
14736;SDS011;7459;53.590;10.062;2024-01-16T06:48:09;3.92;;;1.38;;
14736;SDS011;7459;53.590;10.062;2024-01-16T06:50:35;3.72;;;1.65;;
14736;SDS011;7459;53.590;10.062;2024-01-16T06:53:01;6.13;;;1.43;;
14736;SDS011;7459;53.590;10.062;2024-01-16T06:55:27;4.90;;;1.45;;
14736;SDS011;7459;53.590;10.062;2024-01-16T06:57:52;6.83;;;1.77;;
14736;SDS011;7459;53.590;10.062;2024-01-16T07:00:18;2.88;;;1.27;;
14736;SDS011;7459;53.590;10.062;2024-01-16T07:02:46;5.53;;;1.53;;
14736;SDS011;7459;53.590;10.062;2024-01-16T07:05:11;3.92;;;1.23;;
14736;SDS011;7459;53.590;10.062;2024-01-16T07:07:37;5.40;;;1.42;;
14736;SDS011;7459;53.590;10.062;2024-01-16T07:10:03;4.63;;;1.40;;
14736;SDS011;7459;53.590;10.062;2024-01-16T07:12:33;5.43;;;1.52;;
14736;SDS011;7459;53.590;10.062;2024-01-16T07:16:50;5.25;;;1.42;;
14736;SDS011;7459;53.590;10.062;2024-01-16T07:19:16;5.67;;;1.70;;
14736;SDS011;7459;53.590;10.062;2024-01-16T07:21:42;9.27;;;1.80;;
14736;SDS011;7459;53.590;10.062;2024-01-16T07:24:09;3.33;;;1.30;;
14736;SDS011;7459;53.590;10.062;2024-01-16T07:26:35;4.40;;;1.52;;
14736;SDS011;7459;53.590;10.062;2024-01-16T07:29:00;5.03;;;1.73;;
14736;SDS011;7459;53.590;10.062;2024-01-16T07:31:26;5.40;;;1.70;;
14736;SDS011;7459;53.590;10.062;2024-01-16T07:33:52;6.07;;;1.33;;
14736;SDS011;7459;53.590;10.062;2024-01-16T07:36:17;4.82;;;1.55;;
14736;SDS011;7459;53.590;10.062;2024-01-16T07:38:43;5.70;;;1.70;;
14736;SDS011;7459;53.590;10.062;2024-01-16T07:41:09;7.63;;;1.57;;
14736;SDS011;7459;53.590;10.062;2024-01-16T07:43:35;5.90;;;1.50;;
14736;SDS011;7459;53.590;10.062;2024-01-16T07:46:00;4.88;;;1.80;;
14736;SDS011;7459;53.590;10.062;2024-01-16T07:48:27;4.67;;;1.73;;
14736;SDS011;7459;53.590;10.062;2024-01-16T07:50:54;6.57;;;1.55;;
14736;SDS011;7459;53.590;10.062;2024-01-16T07:53:20;6.85;;;1.55;;
14736;SDS011;7459;53.590;10.062;2024-01-16T07:55:45;7.53;;;2.33;;
14736;SDS011;7459;53.590;10.062;2024-01-16T07:58:11;7.47;;;1.80;;
14736;SDS011;7459;53.590;10.062;2024-01-16T08:00:37;5.33;;;1.80;;
14736;SDS011;7459;53.590;10.062;2024-01-16T08:03:04;4.15;;;1.70;;
14736;SDS011;7459;53.590;10.062;2024-01-16T08:05:33;3.67;;;1.42;;
14736;SDS011;7459;53.590;10.062;2024-01-16T08:07:58;6.93;;;1.80;;
14736;SDS011;7459;53.590;10.062;2024-01-16T08:10:24;5.90;;;1.70;;
14736;SDS011;7459;53.590;10.062;2024-01-16T08:12:50;4.03;;;1.50;;
14736;SDS011;7459;53.590;10.062;2024-01-16T08:15:15;5.47;;;1.70;;
14736;SDS011;7459;53.590;10.062;2024-01-16T08:17:41;7.13;;;1.73;;
14736;SDS011;7459;53.590;10.062;2024-01-16T08:20:09;4.95;;;1.80;;
14736;SDS011;7459;53.590;10.062;2024-01-16T08:22:35;6.65;;;1.98;;
14736;SDS011;7459;53.590;10.062;2024-01-16T08:25:02;5.33;;;1.93;;
14736;SDS011;7459;53.590;10.062;2024-01-16T08:27:30;5.15;;;1.77;;
14736;SDS011;7459;53.590;10.062;2024-01-16T08:29:56;8.68;;;1.92;;
14736;SDS011;7459;53.590;10.062;2024-01-16T08:32:22;6.70;;;2.42;;
14736;SDS011;7459;53.590;10.062;2024-01-16T08:34:47;4.60;;;1.88;;
14736;SDS011;7459;53.590;10.062;2024-01-16T08:37:13;6.97;;;2.03;;
14736;SDS011;7459;53.590;10.062;2024-01-16T08:39:39;7.60;;;1.88;;
14736;SDS011;7459;53.590;10.062;2024-01-16T08:42:05;5.38;;;1.63;;
14736;SDS011;7459;53.590;10.062;2024-01-16T08:44:30;4.10;;;1.73;;
14736;SDS011;7459;53.590;10.062;2024-01-16T08:46:56;3.83;;;1.60;;
14736;SDS011;7459;53.590;10.062;2024-01-16T08:49:24;8.20;;;2.00;;
14736;SDS011;7459;53.590;10.062;2024-01-16T08:51:50;4.78;;;2.05;;
14736;SDS011;7459;53.590;10.062;2024-01-16T08:54:15;7.17;;;2.23;;
14736;SDS011;7459;53.590;10.062;2024-01-16T08:56:41;6.05;;;2.38;;
14736;SDS011;7459;53.590;10.062;2024-01-16T08:59:07;6.73;;;1.97;;
14736;SDS011;7459;53.590;10.062;2024-01-16T09:01:33;7.95;;;2.58;;
14736;SDS011;7459;53.590;10.062;2024-01-16T09:03:58;9.13;;;2.57;;
14736;SDS011;7459;53.590;10.062;2024-01-16T09:06:24;5.10;;;2.22;;
14736;SDS011;7459;53.590;10.062;2024-01-16T09:08:50;8.23;;;2.67;;
14736;SDS011;7459;53.590;10.062;2024-01-16T09:11:16;5.05;;;2.25;;
14736;SDS011;7459;53.590;10.062;2024-01-16T09:13:41;10.20;;;2.60;;
14736;SDS011;7459;53.590;10.062;2024-01-16T09:16:08;9.27;;;2.63;;
14736;SDS011;7459;53.590;10.062;2024-01-16T09:18:34;8.10;;;2.60;;
14736;SDS011;7459;53.590;10.062;2024-01-16T09:21:00;11.77;;;2.57;;
14736;SDS011;7459;53.590;10.062;2024-01-16T09:23:25;4.88;;;2.10;;
14736;SDS011;7459;53.590;10.062;2024-01-16T09:25:51;9.25;;;2.05;;
14736;SDS011;7459;53.590;10.062;2024-01-16T09:28:17;7.37;;;2.37;;
14736;SDS011;7459;53.590;10.062;2024-01-16T09:30:43;7.03;;;2.63;;
14736;SDS011;7459;53.590;10.062;2024-01-16T09:33:09;6.43;;;2.30;;
14736;SDS011;7459;53.590;10.062;2024-01-16T09:35:35;11.87;;;2.77;;
14736;SDS011;7459;53.590;10.062;2024-01-16T09:38:01;7.38;;;2.80;;
14736;SDS011;7459;53.590;10.062;2024-01-16T09:40:29;8.95;;;2.80;;
14736;SDS011;7459;53.590;10.062;2024-01-16T09:42:55;8.37;;;2.57;;
14736;SDS011;7459;53.590;10.062;2024-01-16T09:45:21;8.50;;;3.17;;
14736;SDS011;7459;53.590;10.062;2024-01-16T09:47:49;7.82;;;2.25;;
14736;SDS011;7459;53.590;10.062;2024-01-16T09:50:17;8.63;;;3.00;;
14736;SDS011;7459;53.590;10.062;2024-01-16T09:52:47;6.25;;;2.72;;
14736;SDS011;7459;53.590;10.062;2024-01-16T09:55:14;9.60;;;2.13;;
14736;SDS011;7459;53.590;10.062;2024-01-16T09:57:40;10.38;;;2.25;;
14736;SDS011;7459;53.590;10.062;2024-01-16T10:00:08;5.85;;;2.08;;
14736;SDS011;7459;53.590;10.062;2024-01-16T10:02:41;9.17;;;2.20;;
14736;SDS011;7459;53.590;10.062;2024-01-16T10:05:07;5.65;;;2.05;;
14736;SDS011;7459;53.590;10.062;2024-01-16T10:07:39;5.70;;;1.80;;
14736;SDS011;7459;53.590;10.062;2024-01-16T10:10:09;5.07;;;2.08;;
14736;SDS011;7459;53.590;10.062;2024-01-16T10:12:36;8.82;;;1.88;;
14736;SDS011;7459;53.590;10.062;2024-01-16T10:15:07;5.73;;;1.53;;
14736;SDS011;7459;53.590;10.062;2024-01-16T10:17:40;6.13;;;1.48;;
14736;SDS011;7459;53.590;10.062;2024-01-16T10:20:07;4.45;;;1.70;;
14736;SDS011;7459;53.590;10.062;2024-01-16T10:22:38;6.72;;;1.65;;
14736;SDS011;7459;53.590;10.062;2024-01-16T10:25:08;8.95;;;1.42;;
14736;SDS011;7459;53.590;10.062;2024-01-16T10:27:42;7.47;;;1.37;;
14736;SDS011;7459;53.590;10.062;2024-01-16T10:30:08;4.80;;;1.58;;
14736;SDS011;7459;53.590;10.062;2024-01-16T10:32:42;8.63;;;1.80;;
14736;SDS011;7459;53.590;10.062;2024-01-16T10:35:09;4.47;;;1.80;;
14736;SDS011;7459;53.590;10.062;2024-01-16T10:37:43;5.82;;;1.80;;
14736;SDS011;7459;53.590;10.062;2024-01-16T10:40:16;6.23;;;1.50;;
14736;SDS011;7459;53.590;10.062;2024-01-16T10:43:05;8.90;;;2.08;;
14736;SDS011;7459;53.590;10.062;2024-01-16T10:45:30;7.30;;;2.25;;
14736;SDS011;7459;53.590;10.062;2024-01-16T10:50:31;6.13;;;1.88;;
14736;SDS011;7459;53.590;10.062;2024-01-16T10:52:59;6.27;;;2.43;;
14736;SDS011;7459;53.590;10.062;2024-01-16T10:55:28;7.30;;;2.08;;
14736;SDS011;7459;53.590;10.062;2024-01-16T10:57:55;5.00;;;2.20;;
14736;SDS011;7459;53.590;10.062;2024-01-16T11:00:22;5.80;;;2.00;;
14736;SDS011;7459;53.590;10.062;2024-01-16T11:02:59;6.95;;;1.92;;
14736;SDS011;7459;53.590;10.062;2024-01-16T11:05:31;7.80;;;1.93;;
14736;SDS011;7459;53.590;10.062;2024-01-16T11:08:00;5.70;;;1.73;;
14736;SDS011;7459;53.590;10.062;2024-01-16T11:10:26;5.10;;;1.58;;
14736;SDS011;7459;53.590;10.062;2024-01-16T11:12:52;5.28;;;1.77;;
14736;SDS011;7459;53.590;10.062;2024-01-16T11:15:20;5.60;;;2.10;;
14736;SDS011;7459;53.590;10.062;2024-01-16T11:17:47;6.80;;;2.47;;
14736;SDS011;7459;53.590;10.062;2024-01-16T11:20:15;7.25;;;2.38;;
14736;SDS011;7459;53.590;10.062;2024-01-16T11:22:44;12.45;;;2.72;;
14736;SDS011;7459;53.590;10.062;2024-01-16T11:25:11;7.45;;;2.25;;
14736;SDS011;7459;53.590;10.062;2024-01-16T11:27:39;5.68;;;2.45;;
14736;SDS011;7459;53.590;10.062;2024-01-16T11:30:07;9.43;;;2.57;;
14736;SDS011;7459;53.590;10.062;2024-01-16T11:32:35;8.25;;;2.55;;
14736;SDS011;7459;53.590;10.062;2024-01-16T11:35:08;6.78;;;2.50;;
14736;SDS011;7459;53.590;10.062;2024-01-16T11:37:38;7.10;;;2.30;;
14736;SDS011;7459;53.590;10.062;2024-01-16T11:42:43;8.67;;;2.57;;
14736;SDS011;7459;53.590;10.062;2024-01-16T11:45:54;10.60;;;2.70;;
14736;SDS011;7459;53.590;10.062;2024-01-16T11:48:14;10.57;;;2.95;;
14736;SDS011;7459;53.590;10.062;2024-01-16T11:50:41;9.23;;;2.92;;
14736;SDS011;7459;53.590;10.062;2024-01-16T11:53:08;8.35;;;3.25;;
14736;SDS011;7459;53.590;10.062;2024-01-16T11:55:34;9.03;;;2.57;;
14736;SDS011;7459;53.590;10.062;2024-01-16T11:58:20;7.20;;;2.45;;
14736;SDS011;7459;53.590;10.062;2024-01-16T12:01:17;6.38;;;2.53;;
14736;SDS011;7459;53.590;10.062;2024-01-16T12:03:44;10.63;;;2.40;;
14736;SDS011;7459;53.590;10.062;2024-01-16T12:06:10;6.87;;;2.23;;
14736;SDS011;7459;53.590;10.062;2024-01-16T12:08:36;6.00;;;2.03;;
14736;SDS011;7459;53.590;10.062;2024-01-16T12:11:02;10.93;;;2.60;;
14736;SDS011;7459;53.590;10.062;2024-01-16T12:13:29;8.73;;;2.20;;
14736;SDS011;7459;53.590;10.062;2024-01-16T12:16:04;5.38;;;1.77;;
14736;SDS011;7459;53.590;10.062;2024-01-16T12:18:31;6.25;;;1.95;;
14736;SDS011;7459;53.590;10.062;2024-01-16T12:20:56;8.07;;;1.83;;
14736;SDS011;7459;53.590;10.062;2024-01-16T12:23:23;4.22;;;1.60;;
14736;SDS011;7459;53.590;10.062;2024-01-16T12:25:51;7.60;;;2.05;;
14736;SDS011;7459;53.590;10.062;2024-01-16T12:28:20;5.20;;;1.50;;
14736;SDS011;7459;53.590;10.062;2024-01-16T12:30:49;7.32;;;1.90;;
14736;SDS011;7459;53.590;10.062;2024-01-16T12:33:21;6.15;;;1.85;;
14736;SDS011;7459;53.590;10.062;2024-01-16T12:35:47;7.53;;;1.73;;
14736;SDS011;7459;53.590;10.062;2024-01-16T12:38:14;5.70;;;1.48;;
14736;SDS011;7459;53.590;10.062;2024-01-16T12:40:42;5.60;;;2.07;;
14736;SDS011;7459;53.590;10.062;2024-01-16T12:43:12;9.25;;;1.92;;
14736;SDS011;7459;53.590;10.062;2024-01-16T12:45:38;4.68;;;2.00;;
14736;SDS011;7459;53.590;10.062;2024-01-16T12:48:03;7.50;;;2.37;;
14736;SDS011;7459;53.590;10.062;2024-01-16T12:50:31;8.43;;;2.95;;
14736;SDS011;7459;53.590;10.062;2024-01-16T12:53:04;7.47;;;2.72;;
14736;SDS011;7459;53.590;10.062;2024-01-16T12:55:35;8.02;;;2.75;;
14736;SDS011;7459;53.590;10.062;2024-01-16T12:58:13;13.60;;;2.90;;
14736;SDS011;7459;53.590;10.062;2024-01-16T13:00:41;9.18;;;2.92;;
14736;SDS011;7459;53.590;10.062;2024-01-16T13:03:20;10.70;;;2.70;;
14736;SDS011;7459;53.590;10.062;2024-01-16T13:05:56;7.45;;;3.25;;
14736;SDS011;7459;53.590;10.062;2024-01-16T13:08:24;7.03;;;2.83;;
14736;SDS011;7459;53.590;10.062;2024-01-16T13:11:04;7.40;;;2.70;;
14736;SDS011;7459;53.590;10.062;2024-01-16T13:13:31;9.90;;;3.17;;
14736;SDS011;7459;53.590;10.062;2024-01-16T13:15:57;8.43;;;2.72;;
14736;SDS011;7459;53.590;10.062;2024-01-16T13:18:25;9.30;;;3.20;;
14736;SDS011;7459;53.590;10.062;2024-01-16T13:20:53;10.00;;;2.75;;
14736;SDS011;7459;53.590;10.062;2024-01-16T13:23:21;7.03;;;2.50;;
14736;SDS011;7459;53.590;10.062;2024-01-16T13:25:50;6.50;;;2.55;;
14736;SDS011;7459;53.590;10.062;2024-01-16T13:28:16;5.78;;;2.65;;
14736;SDS011;7459;53.590;10.062;2024-01-16T13:30:45;6.57;;;2.53;;
14736;SDS011;7459;53.590;10.062;2024-01-16T13:33:12;9.55;;;2.47;;
14736;SDS011;7459;53.590;10.062;2024-01-16T13:35:39;5.17;;;2.47;;
14736;SDS011;7459;53.590;10.062;2024-01-16T13:38:06;8.82;;;2.50;;
14736;SDS011;7459;53.590;10.062;2024-01-16T13:40:34;8.02;;;2.90;;
14736;SDS011;7459;53.590;10.062;2024-01-16T13:43:00;10.32;;;3.10;;
14736;SDS011;7459;53.590;10.062;2024-01-16T13:45:27;6.07;;;2.35;;
14736;SDS011;7459;53.590;10.062;2024-01-16T13:47:53;6.40;;;2.70;;
14736;SDS011;7459;53.590;10.062;2024-01-16T13:50:22;7.75;;;2.65;;
14736;SDS011;7459;53.590;10.062;2024-01-16T13:52:48;9.73;;;2.60;;
14736;SDS011;7459;53.590;10.062;2024-01-16T13:55:16;5.10;;;2.22;;
14736;SDS011;7459;53.590;10.062;2024-01-16T13:57:43;5.63;;;2.00;;
14736;SDS011;7459;53.590;10.062;2024-01-16T14:00:10;5.20;;;1.80;;
14736;SDS011;7459;53.590;10.062;2024-01-16T14:02:45;6.28;;;1.95;;
14736;SDS011;7459;53.590;10.062;2024-01-16T14:05:12;6.10;;;1.48;;
14736;SDS011;7459;53.590;10.062;2024-01-16T14:07:44;4.30;;;1.73;;
14736;SDS011;7459;53.590;10.062;2024-01-16T14:10:18;5.17;;;2.20;;
14736;SDS011;7459;53.590;10.062;2024-01-16T14:12:46;8.00;;;1.90;;
14736;SDS011;7459;53.590;10.062;2024-01-16T14:15:15;7.15;;;2.17;;
14736;SDS011;7459;53.590;10.062;2024-01-16T14:17:51;5.57;;;1.73;;
14736;SDS011;7459;53.590;10.062;2024-01-16T14:20:19;8.27;;;2.20;;
14736;SDS011;7459;53.590;10.062;2024-01-16T14:22:48;5.67;;;1.90;;
14736;SDS011;7459;53.590;10.062;2024-01-16T14:25:16;7.47;;;2.13;;
14736;SDS011;7459;53.590;10.062;2024-01-16T14:27:44;9.48;;;1.95;;
14736;SDS011;7459;53.590;10.062;2024-01-16T14:30:34;8.63;;;2.50;;
14736;SDS011;7459;53.590;10.062;2024-01-16T14:33:00;4.57;;;1.90;;
14736;SDS011;7459;53.590;10.062;2024-01-16T14:35:26;4.77;;;1.93;;
14736;SDS011;7459;53.590;10.062;2024-01-16T14:37:55;7.72;;;2.38;;
14736;SDS011;7459;53.590;10.062;2024-01-16T14:40:21;5.40;;;2.58;;
14736;SDS011;7459;53.590;10.062;2024-01-16T14:42:50;6.03;;;2.40;;
14736;SDS011;7459;53.590;10.062;2024-01-16T14:45:22;7.00;;;2.55;;
14736;SDS011;7459;53.590;10.062;2024-01-16T14:47:49;9.00;;;2.25;;
14736;SDS011;7459;53.590;10.062;2024-01-16T14:50:16;7.47;;;1.73;;
14736;SDS011;7459;53.590;10.062;2024-01-16T14:52:43;5.85;;;1.95;;
14736;SDS011;7459;53.590;10.062;2024-01-16T14:55:09;6.30;;;2.80;;
14736;SDS011;7459;53.590;10.062;2024-01-16T14:57:38;7.85;;;2.45;;